Time;durP1;ratioP1;P1;durP2;ratioP2;P2;SDS_P1;SDS_P2;PMS_P1;PMS_P2;Temp;Humidity;BMP_temperature;BMP_pressure;BME280_temperature;BME280_humidity;BME280_pressure;Samples;Min_cycle;Max_cycle;Signal;HPM_P1;HPM_P2
2021/06/03 00:01:59;;;;;;;2.70;1.90;;;22.70;41.40;;;;;;5012755;28;20751;-63
2021/06/03 00:04:25;;;;;;;2.45;2.10;;;22.70;41.50;;;;;;5013643;28;20389;-59
2021/06/03 00:06:50;;;;;;;2.70;1.92;;;22.70;41.60;;;;;;5013875;28;20389;-60
2021/06/03 00:09:17;;;;;;;2.20;1.87;;;22.70;41.60;;;;;;5013834;28;20397;-60
2021/06/03 00:11:43;;;;;;;2.28;1.83;;;22.70;41.50;;;;;;5013816;28;20950;-59
2021/06/03 00:14:09;;;;;;;2.65;1.77;;;22.60;41.60;;;;;;5013102;28;20893;-61
2021/06/03 00:16:35;;;;;;;2.47;2.03;;;22.70;41.60;;;;;;5012405;28;20392;-64
2021/06/03 00:19:06;;;;;;;2.22;1.90;;;22.70;41.70;;;;;;5013559;28;20397;-61
2021/06/03 00:21:33;;;;;;;2.30;2.00;;;22.70;41.70;;;;;;5013683;28;20392;-61
2021/06/03 00:24:00;;;;;;;2.53;1.83;;;22.70;41.70;;;;;;5013305;28;20888;-60
2021/06/03 00:26:26;;;;;;;2.20;2.00;;;22.60;41.50;;;;;;5013288;28;20392;-59
2021/06/03 00:28:51;;;;;;;2.17;1.95;;;22.60;41.60;;;;;;5012181;28;20405;-59
2021/06/03 00:31:17;;;;;;;2.30;1.90;;;22.60;41.60;;;;;;5012670;28;20857;-60
2021/06/03 00:33:43;;;;;;;2.40;2.05;;;22.60;41.60;;;;;;5012765;28;20413;-58
2021/06/03 00:36:09;;;;;;;2.50;2.00;;;22.60;41.70;;;;;;5012935;28;20531;-63
2021/06/03 00:38:36;;;;;;;2.40;2.00;;;22.60;41.60;;;;;;5013286;28;20777;-60
2021/06/03 00:41:04;;;;;;;2.47;2.10;;;22.60;41.70;;;;;;5013082;28;20408;-64
2021/06/03 00:43:30;;;;;;;2.40;1.90;;;22.60;41.70;;;;;;5012980;28;20408;-64
2021/06/03 00:45:57;;;;;;;2.33;2.10;;;22.60;41.70;;;;;;5012782;28;20799;-63
2021/06/03 00:48:22;;;;;;;2.30;2.00;;;22.60;41.70;;;;;;5012289;28;21103;-60
2021/06/03 00:50:50;;;;;;;2.50;2.17;;;22.60;41.80;;;;;;5013017;28;20416;-59
2021/06/03 00:53:17;;;;;;;2.30;2.10;;;22.50;41.70;;;;;;5013077;28;20488;-62
2021/06/03 00:55:46;;;;;;;2.42;2.22;;;22.60;41.70;;;;;;5012962;28;20392;-63
2021/06/03 00:58:12;;;;;;;2.65;2.10;;;22.50;41.80;;;;;;5012473;28;20389;-61
2021/06/03 01:00:38;;;;;;;2.37;2.10;;;22.50;41.70;;;;;;5012994;28;20428;-60
2021/06/03 01:03:05;;;;;;;3.00;2.15;;;22.50;41.80;;;;;;5012817;28;20443;-60
2021/06/03 01:05:44;;;;;;;2.50;2.08;;;22.50;41.80;;;;;;5012724;28;20983;-60
2021/06/03 01:08:19;;;;;;;2.33;2.10;;;22.50;41.80;;;;;;5012338;28;20388;-61
2021/06/03 01:11:11;;;;;;;2.47;2.20;;;22.50;41.80;;;;;;5012727;28;20904;-60
2021/06/03 01:13:40;;;;;;;2.30;1.90;;;22.50;41.90;;;;;;5012374;28;20470;-60
2021/06/03 01:16:07;;;;;;;2.60;2.20;;;22.50;41.80;;;;;;5012158;28;20388;-59
2021/06/03 01:18:36;;;;;;;2.70;2.20;;;22.50;41.90;;;;;;5011842;28;20492;-60
2021/06/03 01:21:18;;;;;;;2.53;2.15;;;22.40;41.70;;;;;;5012419;28;20428;-60
2021/06/03 01:23:56;;;;;;;2.13;1.88;;;22.40;41.80;;;;;;5012275;28;20451;-60
2021/06/03 01:26:21;;;;;;;2.38;2.10;;;22.40;41.70;;;;;;5011271;28;20462;-62
2021/06/03 01:28:48;;;;;;;2.87;2.10;;;22.40;41.90;;;;;;5012255;28;20885;-61
2021/06/03 01:31:14;;;;;;;2.60;1.92;;;22.40;41.80;;;;;;5012281;28;20784;-63
2021/06/03 01:33:41;;;;;;;2.25;2.05;;;22.40;41.80;;;;;;5012304;28;20427;-64
2021/06/03 01:36:12;;;;;;;2.70;2.13;;;22.40;41.80;;;;;;5012017;28;20514;-64
2021/06/03 01:38:40;;;;;;;3.05;1.92;;;22.40;41.80;;;;;;5012619;28;20389;-64
2021/06/03 01:41:08;;;;;;;2.30;1.80;;;22.40;41.90;;;;;;5012403;28;20393;-64
2021/06/03 01:43:37;;;;;;;2.30;1.90;;;22.40;41.90;;;;;;5011948;28;20401;-64
2021/06/03 01:46:04;;;;;;;3.10;2.00;;;22.40;41.80;;;;;;5011901;28;20384;-63
2021/06/03 01:48:31;;;;;;;2.72;2.10;;;22.30;41.80;;;;;;5011848;28;20809;-64
2021/06/03 01:50:58;;;;;;;2.30;1.95;;;22.30;41.80;;;;;;5012016;28;20389;-64
2021/06/03 01:53:27;;;;;;;2.13;1.87;;;22.30;41.90;;;;;;5011978;28;20479;-63
2021/06/03 01:55:59;;;;;;;2.30;2.10;;;22.30;41.90;;;;;;5011822;28;20408;-64
2021/06/03 01:58:25;;;;;;;2.40;2.20;;;22.30;41.80;;;;;;5011532;28;20471;-63
2021/06/03 02:00:52;;;;;;;2.40;2.00;;;22.30;41.90;;;;;;5011807;28;20479;-63
2021/06/03 02:03:22;;;;;;;2.45;1.88;;;22.30;41.80;;;;;;5011853;28;20496;-64
2021/06/03 02:05:47;;;;;;;2.95;2.10;;;22.30;41.80;;;;;;5011852;28;20896;-64
2021/06/03 02:08:13;;;;;;;2.10;1.80;;;22.30;41.80;;;;;;5011676;28;20400;-64
2021/06/03 02:10:39;;;;;;;2.50;1.90;;;22.30;41.80;;;;;;5011591;28;20809;-64
2021/06/03 02:13:35;;;;;;;2.70;2.20;;;22.30;41.90;;;;;;5011573;28;20420;-63
2021/06/03 02:16:30;;;;;;;2.47;1.90;;;22.30;41.90;;;;;;5011700;28;20393;-63
2021/06/03 02:19:05;;;;;;;2.95;2.00;;;22.30;42.00;;;;;;5011010;28;20424;-64
2021/06/03 02:21:34;;;;;;;2.50;2.00;;;22.30;41.90;;;;;;5011952;28;20415;-64
2021/06/03 02:24:01;;;;;;;2.30;2.00;;;22.20;41.90;;;;;;5011552;28;20385;-64
2021/06/03 02:26:28;;;;;;;2.90;2.10;;;22.20;41.90;;;;;;5011226;28;20391;-63
2021/06/03 02:28:56;;;;;;;1.98;1.63;;;22.30;41.90;;;;;;5011576;28;20411;-64
2021/06/03 02:31:23;;;;;;;2.72;2.22;;;22.20;41.90;;;;;;5011668;28;20450;-63
2021/06/03 02:33:49;;;;;;;2.30;2.10;;;22.20;41.90;;;;;;5011513;28;20448;-65
2021/06/03 02:36:15;;;;;;;1.90;1.70;;;22.20;41.90;;;;;;5011284;28;20753;-64
2021/06/03 02:38:41;;;;;;;2.47;2.00;;;22.20;41.90;;;;;;5013247;28;20400;-61
2021/06/03 02:41:09;;;;;;;2.20;2.00;;;22.20;41.90;;;;;;5015589;28;20387;-63
2021/06/03 02:43:37;;;;;;;2.50;1.90;;;22.20;41.90;;;;;;5015356;28;20420;-62
2021/06/03 02:46:03;;;;;;;2.10;1.90;;;22.20;41.90;;;;;;5015364;28;20427;-61
2021/06/03 02:48:29;;;;;;;2.20;2.00;;;22.20;41.90;;;;;;5014965;28;20388;-59
2021/06/03 02:50:55;;;;;;;2.10;1.80;;;22.20;41.90;;;;;;5015278;28;20757;-59
2021/06/03 02:53:21;;;;;;;2.08;1.80;;;22.20;41.90;;;;;;5015250;28;20400;-61
2021/06/03 02:55:47;;;;;;;2.40;2.00;;;22.20;41.90;;;;;;5015170;28;20400;-59
2021/06/03 02:58:13;;;;;;;2.03;1.77;;;22.20;42.50;;;;;;5030139;28;20472;-62
2021/06/03 03:00:39;;;;;;;1.92;1.70;;;22.10;41.80;;;;;;5014855;28;20420;-59
2021/06/03 03:03:08;;;;;;;2.03;1.70;;;22.10;41.80;;;;;;5015040;28;20420;-61
2021/06/03 03:05:41;;;;;;;2.03;1.83;;;22.10;41.90;;;;;;5015016;28;20447;-59
2021/06/03 03:08:07;;;;;;;2.10;1.80;;;22.10;41.80;;;;;;5014891;28;20388;-60
2021/06/03 03:10:40;;;;;;;2.30;1.88;;;22.10;41.80;;;;;;5014727;28;20453;-59
2021/06/03 03:13:06;;;;;;;2.10;1.90;;;22.10;41.80;;;;;;5014780;28;20391;-61
2021/06/03 03:15:32;;;;;;;2.10;1.83;;;22.10;41.80;;;;;;5014857;28;20405;-60
2021/06/03 03:17:58;;;;;;;2.60;2.05;;;22.10;41.80;;;;;;5014894;28;20940;-61
2021/06/03 03:20:26;;;;;;;2.00;1.80;;;22.10;41.80;;;;;;5014347;28;20897;-62
2021/06/03 03:22:53;;;;;;;2.30;1.80;;;22.10;41.80;;;;;;5014752;28;20405;-59
2021/06/03 03:25:20;;;;;;;2.28;1.90;;;22.10;41.80;;;;;;5014694;28;20397;-59
2021/06/03 03:27:47;;;;;;;2.60;1.90;;;22.10;41.80;;;;;;5014695;28;20740;-59
2021/06/03 03:30:15;;;;;;;2.03;1.73;;;22.00;41.70;;;;;;5014347;28;20397;-60
2021/06/03 03:32:41;;;;;;;2.22;1.95;;;22.00;41.70;;;;;;5013005;28;20408;-59
2021/06/03 03:35:08;;;;;;;2.07;1.60;;;22.10;41.80;;;;;;5014398;28;20416;-59
2021/06/03 03:37:34;;;;;;;2.22;1.98;;;22.00;41.80;;;;;;5014360;28;20946;-58
2021/06/03 03:40:00;;;;;;;2.17;1.90;;;22.00;41.80;;;;;;5014406;28;20401;-59
2021/06/03 03:42:26;;;;;;;2.30;1.80;;;22.10;41.80;;;;;;5014014;28;20412;-59
2021/06/03 03:44:52;;;;;;;2.03;1.77;;;22.10;41.90;;;;;;5014156;28;20417;-64
2021/06/03 03:47:18;;;;;;;2.30;1.80;;;22.00;41.80;;;;;;5014378;28;20880;-63
2021/06/03 03:49:43;;;;;;;3.47;1.90;;;22.00;41.90;;;;;;5013381;28;20488;-63
2021/06/03 03:52:09;;;;;;;1.85;1.73;;;22.00;41.90;;;;;;5013984;28;20400;-59
2021/06/03 03:54:35;;;;;;;2.10;1.80;;;22.10;41.90;;;;;;5013851;28;20516;-64
2021/06/03 03:57:01;;;;;;;2.10;1.83;;;22.00;41.90;;;;;;5014083;28;20492;-63
2021/06/03 03:59:27;;;;;;;2.10;1.90;;;22.10;42.00;;;;;;5012822;28;20451;-64
2021/06/03 04:01:54;;;;;;;2.20;1.87;;;22.10;42.00;;;;;;5013922;28;20393;-63
2021/06/03 04:04:22;;;;;;;2.03;1.80;;;22.00;42.00;;;;;;5013750;28;20392;-64
2021/06/03 04:06:48;;;;;;;2.30;1.90;;;22.00;42.00;;;;;;5013861;28;20385;-61
2021/06/03 04:09:14;;;;;;;2.03;1.80;;;22.00;42.00;;;;;;5013914;28;20458;-62
2021/06/03 04:11:40;;;;;;;2.42;1.65;;;22.00;42.00;;;;;;5013854;28;20718;-64
2021/06/03 04:14:05;;;;;;;2.17;1.63;;;22.00;42.00;;;;;;5013629;28;20867;-63
2021/06/03 04:16:31;;;;;;;2.20;2.00;;;22.00;42.00;;;;;;5013343;28;20784;-64
2021/06/03 04:18:57;;;;;;;2.23;1.70;;;22.10;42.10;;;;;;5013719;28;20421;-63
2021/06/03 04:21:22;;;;;;;2.00;1.65;;;22.10;42.10;;;;;;5013701;28;20381;-63
2021/06/03 04:23:48;;;;;;;1.90;1.70;;;22.00;42.10;;;;;;5013549;28;20389;-59
2021/06/03 04:26:14;;;;;;;2.40;1.80;;;22.00;42.00;;;;;;5012158;28;20769;-63
2021/06/03 04:28:40;;;;;;;1.88;1.70;;;22.00;42.10;;;;;;5013353;28;20924;-59
2021/06/03 04:31:06;;;;;;;2.38;1.70;;;22.00;42.10;;;;;;5013359;28;20392;-61
2021/06/03 04:33:31;;;;;;;1.57;1.47;;;22.00;42.10;;;;;;5013364;28;21014;-60
2021/06/03 04:35:57;;;;;;;1.98;1.70;;;22.10;42.10;;;;;;5013325;28;20421;-60
2021/06/03 04:38:23;;;;;;;1.93;1.70;;;22.10;42.10;;;;;;5012950;28;20404;-59
2021/06/03 04:40:49;;;;;;;2.53;1.60;;;22.00;42.10;;;;;;5013249;28;20391;-62
2021/06/03 04:43:15;;;;;;;1.95;1.75;;;22.10;42.20;;;;;;5012982;28;20409;-62
2021/06/03 04:45:41;;;;;;;2.15;1.95;;;22.10;42.20;;;;;;5013274;28;20403;-60
2021/06/03 04:48:10;;;;;;;2.00;1.60;;;22.00;42.20;;;;;;5013142;28;20528;-61
2021/06/03 04:50:37;;;;;;;2.37;1.83;;;22.00;42.20;;;;;;5012671;28;20446;-61
2021/06/03 04:53:03;;;;;;;2.08;1.67;;;22.00;42.20;;;;;;5012909;28;20483;-60
2021/06/03 04:55:30;;;;;;;1.98;1.60;;;22.00;42.30;;;;;;5012952;28;20877;-60
2021/06/03 04:57:57;;;;;;;2.00;1.80;;;22.10;42.30;;;;;;5012954;28;20407;-60
2021/06/03 05:00:26;;;;;;;1.92;1.73;;;22.10;42.30;;;;;;5011441;28;20397;-61
2021/06/03 05:02:52;;;;;;;1.90;1.70;;;22.10;42.20;;;;;;5012671;28;20480;-59
2021/06/03 05:05:18;;;;;;;1.90;1.70;;;22.10;42.70;;;;;;5012900;28;20400;-60
2021/06/03 05:07:44;;;;;;;1.98;1.60;;;22.10;42.30;;;;;;5012894;28;20446;-60
2021/06/03 05:10:11;;;;;;;1.85;1.60;;;22.10;42.30;;;;;;5012731;28;20397;-64
2021/06/03 05:12:37;;;;;;;2.10;1.90;;;22.10;42.20;;;;;;5012275;28;20524;-62
2021/06/03 05:15:05;;;;;;;3.90;2.03;;;22.10;42.30;;;;;;5012537;28;20412;-63
2021/06/03 05:17:31;;;;;;;2.88;1.90;;;22.10;43.00;;;;;;5012718;28;20417;-61
2021/06/03 05:19:57;;;;;;;3.65;1.90;;;22.10;43.30;;;;;;5012505;28;20850;-59
2021/06/03 05:22:22;;;;;;;2.90;1.90;;;22.10;42.60;;;;;;5012357;28;20753;-60
2021/06/03 05:24:48;;;;;;;4.45;2.22;;;22.10;43.10;;;;;;5012303;28;20385;-59
2021/06/03 05:27:14;;;;;;;4.73;2.93;;;22.10;43.00;;;;;;5012454;28;20385;-60
2021/06/03 05:29:39;;;;;;;4.35;2.03;;;22.10;43.70;;;;;;5012486;28;20408;-60
2021/06/03 05:32:05;;;;;;;3.87;2.43;;;22.20;44.60;;;;;;5012169;28;20486;-60
2021/06/03 05:34:31;;;;;;;4.82;2.78;;;22.20;45.00;;;;;;5011705;28;20515;-59
2021/06/03 05:36:58;;;;;;;3.70;2.78;;;22.20;44.00;;;;;;5012253;28;20396;-58
2021/06/03 05:39:24;;;;;;;4.13;2.97;;;22.20;44.00;;;;;;5012201;28;20401;-59
2021/06/03 05:41:50;;;;;;;6.00;2.93;;;22.20;44.00;;;;;;5012112;28;20447;-60
2021/06/03 05:44:16;;;;;;;5.77;2.57;;;22.20;44.30;;;;;;5026897;28;20421;-60
2021/06/03 05:46:41;;;;;;;5.68;2.80;;;22.20;45.30;;;;;;5011853;28;20395;-59
2021/06/03 05:49:08;;;;;;;3.72;2.63;;;22.30;45.20;;;;;;5012005;28;20384;-62
2021/06/03 05:51:35;;;;;;;3.45;2.42;;;22.30;45.10;;;;;;5012053;28;20385;-62
2021/06/03 05:54:00;;;;;;;4.30;2.80;;;22.30;44.60;;;;;;5011827;28;20425;-60
2021/06/03 05:56:26;;;;;;;5.10;2.80;;;22.30;45.10;;;;;;5011821;28;20444;-63
2021/06/03 05:58:53;;;;;;;6.57;2.47;;;22.40;45.10;;;;;;5012012;28;20447;-62
2021/06/03 06:01:19;;;;;;;4.82;2.58;;;22.40;45.90;;;;;;5011948;28;20389;-63
2021/06/03 06:06:31;;;;;;;3.60;2.50;;;22.40;45.00;;;;;;4990720;28;20405;-64
2021/06/03 06:08:59;;;;;;;4.25;2.60;;;22.40;45.10;;;;;;5011760;28;20472;-63
2021/06/03 06:11:27;;;;;;;4.88;2.22;;;22.40;45.10;;;;;;5011779;28;20723;-63
2021/06/03 06:13:53;;;;;;;3.97;2.40;;;22.40;44.80;;;;;;5011123;28;20409;-60
2021/06/03 06:16:19;;;;;;;5.43;2.20;;;22.50;45.10;;;;;;5011565;28;20474;-63
2021/06/03 06:18:46;;;;;;;5.43;2.50;;;22.50;45.60;;;;;;5011445;28;20385;-63
2021/06/03 06:21:16;;;;;;;3.75;2.10;;;22.50;45.00;;;;;;5011741;28;20471;-61
2021/06/03 06:23:42;;;;;;;5.68;2.70;;;22.50;45.00;;;;;;5011648;28;20746;-60
2021/06/03 06:26:09;;;;;;;3.72;2.20;;;22.50;44.90;;;;;;5011613;28;20398;-59
2021/06/03 06:28:35;;;;;;;4.73;2.10;;;22.50;45.50;;;;;;5011135;28;20397;-60
2021/06/03 06:31:02;;;;;;;4.57;2.35;;;22.50;45.40;;;;;;5013272;28;20398;-60
2021/06/03 06:33:28;;;;;;;5.20;2.42;;;22.50;45.60;;;;;;5010693;28;20475;-59
2021/06/03 06:35:54;;;;;;;6.93;2.53;;;22.50;45.60;;;;;;5011523;28;20391;-63
2021/06/03 06:38:22;;;;;;;5.75;2.30;;;22.50;46.20;;;;;;5010809;28;20489;-63
2021/06/03 06:40:49;;;;;;;4.93;2.15;;;22.50;46.00;;;;;;5011359;28;20400;-63
2021/06/03 06:43:15;;;;;;;5.28;2.17;;;22.60;46.30;;;;;;5011336;28;20524;-63
2021/06/03 06:45:41;;;;;;;6.13;2.20;;;22.60;46.30;;;;;;5011567;28;20460;-60
2021/06/03 06:48:10;;;;;;;6.93;2.22;;;22.60;46.60;;;;;;5011324;28;20447;-63
2021/06/03 06:50:37;;;;;;;5.00;2.00;;;22.60;46.30;;;;;;5010923;28;20377;-64
2021/06/03 06:53:04;;;;;;;4.90;2.00;;;22.60;46.30;;;;;;5011266;28;20412;-64
2021/06/03 06:55:31;;;;;;;4.53;2.22;;;22.70;46.40;;;;;;5011386;28;20731;-63
2021/06/03 06:58:00;;;;;;;4.15;2.00;;;22.70;46.40;;;;;;5011306;28;20384;-59
2021/06/03 07:00:31;;;;;;;3.72;2.20;;;22.60;46.10;;;;;;5010998;28;20389;-64
2021/06/03 07:02:57;;;;;;;8.27;2.42;;;22.70;46.20;;;;;;5009857;28;20416;-59
2021/06/03 07:05:23;;;;;;;8.82;2.58;;;22.70;46.40;;;;;;5011316;28;20420;-59
2021/06/03 07:07:50;;;;;;;8.85;2.40;;;22.70;46.10;;;;;;5011230;28;20952;-60
2021/06/03 07:10:16;;;;;;;6.67;2.33;;;22.70;46.30;;;;;;5011019;28;20400;-62
2021/06/03 07:12:43;;;;;;;4.93;2.38;;;22.70;46.10;;;;;;5008813;28;20388;-60
2021/06/03 07:15:11;;;;;;;4.88;2.30;;;22.70;46.40;;;;;;5008591;28;20448;-60
2021/06/03 07:17:38;;;;;;;6.85;2.30;;;22.70;46.30;;;;;;5008686;28;20385;-62
2021/06/03 07:20:09;;;;;;;3.72;2.40;;;22.70;45.90;;;;;;5008625;28;20405;-60
2021/06/03 07:22:35;;;;;;;4.03;2.30;;;22.70;45.90;;;;;;5008118;28;20840;-63
2021/06/03 07:25:02;;;;;;;4.47;2.03;;;22.80;45.90;;;;;;5009221;28;20413;-61
2021/06/03 07:27:28;;;;;;;4.28;1.90;;;22.80;45.90;;;;;;5012213;28;20824;-60
2021/06/03 07:29:58;;;;;;;5.03;1.92;;;22.80;45.70;;;;;;5012053;28;20403;-63
2021/06/03 07:32:25;;;;;;;2.45;1.80;;;22.80;45.40;;;;;;5011839;28;20415;-63
2021/06/03 07:34:51;;;;;;;3.40;2.00;;;22.80;45.40;;;;;;5011618;28;20955;-63
2021/06/03 07:37:16;;;;;;;3.40;2.10;;;22.80;45.10;;;;;;5012092;28;20393;-63
2021/06/03 07:39:42;;;;;;;3.90;1.77;;;22.80;44.80;;;;;;5011920;28;20419;-65
2021/06/03 07:42:10;;;;;;;5.73;2.17;;;22.80;45.00;;;;;;5010544;28;20495;-61
2021/06/03 07:44:35;;;;;;;5.22;1.90;;;22.80;45.00;;;;;;5011278;28;20416;-64
2021/06/03 07:47:01;;;;;;;7.77;2.37;;;22.80;45.30;;;;;;5011806;28;20411;-63
2021/06/03 07:49:27;;;;;;;9.50;2.50;;;22.80;46.40;;;;;;5009159;28;20781;-60
2021/06/03 07:51:54;;;;;;;6.87;2.43;;;22.80;46.10;;;;;;5011562;28;20447;-59
2021/06/03 07:54:19;;;;;;;5.57;2.15;;;22.90;46.20;;;;;;5011487;28;20508;-60
2021/06/03 07:56:45;;;;;;;5.55;2.30;;;22.90;46.40;;;;;;5011041;28;20476;-62
2021/06/03 07:59:11;;;;;;;5.90;2.10;;;22.90;46.00;;;;;;5011374;28;20500;-60
2021/06/03 08:01:37;;;;;;;7.47;2.20;;;22.90;45.50;;;;;;5011067;28;20431;-60
2021/06/03 08:04:02;;;;;;;4.97;2.10;;;22.80;45.80;;;;;;5011183;28;20885;-60
2021/06/03 08:06:28;;;;;;;4.88;2.00;;;22.90;45.70;;;;;;5011069;28;20471;-61
2021/06/03 08:08:53;;;;;;;4.40;2.00;;;22.90;45.40;;;;;;5010948;28;20832;-60
2021/06/03 08:11:19;;;;;;;4.90;2.10;;;22.90;45.70;;;;;;5011522;28;20389;-60
2021/06/03 08:13:47;;;;;;;5.27;2.20;;;22.90;45.60;;;;;;5011311;28;20409;-60
2021/06/03 08:16:13;;;;;;;6.07;2.20;;;22.90;45.60;;;;;;5011203;28;20849;-60
2021/06/03 08:18:38;;;;;;;3.55;2.00;;;22.90;45.50;;;;;;5010709;28;20413;-62
2021/06/03 08:21:05;;;;;;;5.30;2.33;;;22.90;45.50;;;;;;5011278;28;20396;-60
2021/06/03 08:23:31;;;;;;;3.83;2.00;;;22.90;45.50;;;;;;5011027;28;20518;-58
2021/06/03 08:25:58;;;;;;;4.47;2.10;;;22.90;45.40;;;;;;5010974;28;20409;-59
2021/06/03 08:28:25;;;;;;;3.63;1.80;;;23.00;45.40;;;;;;5011020;28;20404;-60
2021/06/03 08:30:52;;;;;;;4.47;2.30;;;23.00;45.50;;;;;;5010591;28;20435;-60
2021/06/03 08:33:18;;;;;;;3.75;2.15;;;22.90;45.30;;;;;;5011125;28;20400;-61
2021/06/03 08:35:44;;;;;;;3.42;2.00;;;23.00;45.30;;;;;;5010483;28;20397;-60
2021/06/03 08:38:12;;;;;;;3.10;1.80;;;23.00;45.30;;;;;;5010835;28;20890;-60
2021/06/03 08:40:47;;;;;;;2.80;1.95;;;23.00;45.40;;;;;;5010693;28;20401;-61
2021/06/03 08:43:14;;;;;;;3.72;2.08;;;23.00;45.10;;;;;;5009856;28;20401;-60
2021/06/03 08:45:42;;;;;;;3.17;1.73;;;23.00;45.20;;;;;;5011871;28;20427;-61
2021/06/03 08:48:08;;;;;;;4.32;1.90;;;23.00;45.20;;;;;;5011654;28;20854;-63
2021/06/03 08:50:38;;;;;;;2.90;1.83;;;23.00;45.00;;;;;;5011357;28;20499;-61
2021/06/03 08:53:04;;;;;;;3.75;1.88;;;23.00;45.10;;;;;;5011367;28;20393;-63
2021/06/03 08:58:17;;;;;;;3.30;2.00;;;23.00;45.00;;;;;;5011908;28;20729;-59
2021/06/03 09:00:44;;;;;;;3.80;1.90;;;23.00;44.90;;;;;;5011187;28;20389;-63
2021/06/03 09:03:11;;;;;;;3.43;2.00;;;23.00;44.90;;;;;;5011659;28;20439;-62
2021/06/03 09:05:37;;;;;;;3.33;2.00;;;23.00;44.90;;;;;;5011449;28;20476;-60
2021/06/03 09:08:36;;;;;;;4.65;2.30;;;23.00;44.90;;;;;;5011360;28;20839;-60
2021/06/03 09:11:11;;;;;;;3.43;2.20;;;23.00;44.90;;;;;;5010014;28;20943;-60
2021/06/03 09:13:40;;;;;;;4.53;2.38;;;23.00;44.90;;;;;;5011401;28;20408;-60
2021/06/03 09:16:08;;;;;;;4.10;2.20;;;23.00;44.90;;;;;;5011254;28;20484;-59
2021/06/03 09:18:42;;;;;;;4.53;2.35;;;23.00;44.90;;;;;;5011047;28;20385;-60
2021/06/03 09:21:12;;;;;;;3.33;2.03;;;23.10;44.80;;;;;;5011343;28;20940;-60
2021/06/03 09:23:46;;;;;;;4.38;2.40;;;23.00;44.80;;;;;;5011208;28;20384;-59
2021/06/03 09:26:14;;;;;;;3.25;2.22;;;23.00;44.80;;;;;;5011267;28;20377;-59
2021/06/03 09:28:46;;;;;;;3.85;2.47;;;23.10;45.00;;;;;;5010778;28;20872;-60
2021/06/03 09:31:26;;;;;;;3.43;2.20;;;23.10;45.30;;;;;;5010982;28;20817;-59
2021/06/03 09:34:07;;;;;;;3.55;2.30;;;23.10;44.90;;;;;;5010875;28;20462;-61
2021/06/03 09:36:52;;;;;;;3.20;2.20;;;23.10;44.80;;;;;;5010887;28;20404;-60
2021/06/03 09:39:22;;;;;;;3.25;2.30;;;23.10;44.90;;;;;;5011163;28;20389;-60
2021/06/03 09:41:58;;;;;;;3.42;2.17;;;23.10;44.80;;;;;;5010832;28;20898;-60
2021/06/03 09:44:34;;;;;;;3.75;2.30;;;23.10;44.80;;;;;;5010647;28;20413;-60
2021/06/03 09:47:16;;;;;;;2.63;1.92;;;23.10;44.80;;;;;;5010496;28;20392;-60
2021/06/03 09:49:53;;;;;;;3.00;1.90;;;23.10;44.70;;;;;;5010496;28;20861;-61
2021/06/03 09:52:27;;;;;;;2.75;1.90;;;23.10;44.60;;;;;;5010660;28;20746;-60
2021/06/03 09:55:00;;;;;;;3.13;1.95;;;23.10;44.60;;;;;;5010299;28;20948;-60
2021/06/03 09:57:34;;;;;;;2.80;2.10;;;23.10;44.60;;;;;;5010651;28;20396;-60
2021/06/03 10:00:16;;;;;;;3.03;2.05;;;23.10;44.50;;;;;;5010608;28;20404;-60
2021/06/03 10:02:44;;;;;;;3.20;1.92;;;23.10;44.50;;;;;;5010183;28;21007;-61
2021/06/03 10:05:17;;;;;;;2.88;1.90;;;23.10;44.60;;;;;;5010597;28;20877;-59
2021/06/03 10:08:00;;;;;;;2.60;1.93;;;23.10;44.50;;;;;;5010647;28;20422;-60
2021/06/03 10:10:27;;;;;;;2.60;2.00;;;23.10;44.40;;;;;;5010466;28;20757;-59
2021/06/03 10:12:53;;;;;;;2.42;1.90;;;23.10;44.40;;;;;;5009912;28;20409;-59
2021/06/03 10:15:19;;;;;;;2.47;1.83;;;23.10;44.40;;;;;;5010491;28;20427;-60
2021/06/03 10:17:50;;;;;;;2.80;1.85;;;23.10;44.30;;;;;;5010403;28;20388;-60
2021/06/03 10:20:22;;;;;;;2.85;1.90;;;23.10;44.30;;;;;;5010355;28;20384;-59
2021/06/03 10:22:53;;;;;;;3.10;1.90;;;23.10;44.80;;;;;;5009844;28;20389;-60
2021/06/03 10:25:20;;;;;;;2.53;1.83;;;23.20;44.40;;;;;;5010489;28;20476;-60
2021/06/03 10:27:49;;;;;;;2.20;1.73;;;23.10;44.30;;;;;;5010227;28;20968;-60
2021/06/03 10:30:19;;;;;;;2.40;1.70;;;23.10;44.20;;;;;;5010246;28;20432;-59
2021/06/03 10:32:48;;;;;;;2.20;1.70;;;23.10;44.10;;;;;;5009892;28;20396;-59
2021/06/03 10:35:17;;;;;;;2.00;1.60;;;23.20;44.00;;;;;;5010136;28;20417;-59
2021/06/03 10:37:44;;;;;;;2.22;1.70;;;23.10;43.90;;;;;;5010231;28;20393;-61
2021/06/03 10:40:17;;;;;;;2.30;1.83;;;23.10;43.70;;;;;;5010202;28;20396;-61
2021/06/03 10:42:44;;;;;;;2.33;1.65;;;23.10;44.50;;;;;;5009803;28;20932;-60
2021/06/03 10:45:15;;;;;;;2.30;1.60;;;23.10;44.40;;;;;;5009997;28;20876;-60
2021/06/03 10:47:41;;;;;;;3.60;1.63;;;23.10;44.30;;;;;;5008905;28;20804;-60
2021/06/03 10:50:12;;;;;;;3.50;1.85;;;23.10;43.90;;;;;;5010066;28;20951;-65
2021/06/03 10:52:38;;;;;;;2.28;1.75;;;23.10;43.70;;;;;;5009954;28;20435;-59
2021/06/03 10:55:06;;;;;;;7.40;2.80;;;23.10;43.90;;;;;;5009829;28;20428;-60
2021/06/03 10:57:47;;;;;;;8.05;2.20;;;23.10;44.80;;;;;;5010287;28;20388;-60
2021/06/03 11:00:27;;;;;;;7.65;2.20;;;23.20;45.80;;;;;;5012744;28;20450;-62
2021/06/03 11:02:55;;;;;;;6.53;2.30;;;23.20;45.50;;;;;;5013358;28;20953;-61
2021/06/03 11:05:24;;;;;;;4.20;2.10;;;23.20;45.70;;;;;;5013798;28;20393;-60
2021/06/03 11:07:49;;;;;;;5.85;2.22;;;23.20;45.30;;;;;;5013674;28;20393;-62
2021/06/03 11:10:24;;;;;;;4.90;2.10;;;23.20;45.10;;;;;;5013640;28;20384;-60
2021/06/03 11:13:11;;;;;;;4.15;1.98;;;23.20;44.90;;;;;;5012971;28;20393;-61
2021/06/03 11:16:02;;;;;;;3.33;1.73;;;23.20;44.30;;;;;;5013557;28;20467;-61
2021/06/03 11:18:45;;;;;;;3.60;1.98;;;23.20;44.40;;;;;;5013553;28;20399;-62
2021/06/03 11:24:08;;;;;;;3.83;1.70;;;23.20;44.20;;;;;;5015008;28;20392;-60
2021/06/03 11:26:37;;;;;;;5.45;1.80;;;23.10;43.90;;;;;;5014508;28;20393;-60
2021/06/03 11:29:16;;;;;;;3.70;1.70;;;23.10;44.00;;;;;;5014002;28;20397;-60
2021/06/03 11:31:47;;;;;;;5.03;2.00;;;23.20;43.90;;;;;;5014605;28;20422;-60
2021/06/03 11:34:17;;;;;;;5.75;1.80;;;23.20;44.00;;;;;;5013819;28;20416;-60
2021/06/03 11:36:55;;;;;;;4.65;1.75;;;23.10;44.00;;;;;;5014148;28;20388;-60
2021/06/03 11:39:33;;;;;;;4.13;1.63;;;23.10;43.70;;;;;;5014494;28;20468;-60
2021/06/03 11:42:22;;;;;;;3.00;1.90;;;23.10;43.30;;;;;;5014234;28;20451;-59
2021/06/03 11:45:11;;;;;;;3.10;1.80;;;23.10;43.10;;;;;;5013624;28;20408;-60
2021/06/03 11:47:36;;;;;;;3.30;1.95;;;23.10;42.90;;;;;;5014323;28;20438;-60
2021/06/03 11:50:03;;;;;;;2.93;1.80;;;23.10;43.00;;;;;;5014294;28;20741;-60
2021/06/03 11:52:30;;;;;;;3.90;1.40;;;23.10;42.80;;;;;;5014190;28;20397;-60
2021/06/03 11:55:02;;;;;;;3.17;1.90;;;23.10;42.80;;;;;;5013487;28;20424;-60
2021/06/03 11:57:30;;;;;;;2.60;1.60;;;23.10;42.80;;;;;;5014013;28;20423;-60
2021/06/03 12:00:08;;;;;;;3.20;1.60;;;23.10;43.00;;;;;;5013830;28;20499;-59
2021/06/03 12:02:37;;;;;;;2.80;1.50;;;23.20;42.80;;;;;;5013737;28;20401;-59
2021/06/03 12:05:09;;;;;;;3.00;1.50;;;23.10;42.70;;;;;;5013691;28;20550;-59
2021/06/03 12:07:54;;;;;;;2.88;1.50;;;23.10;42.40;;;;;;5013927;28;20403;-60
2021/06/03 12:10:42;;;;;;;2.65;1.40;;;23.10;42.40;;;;;;5013553;28;20408;-59
2021/06/03 12:13:18;;;;;;;2.22;1.55;;;23.10;42.30;;;;;;5012930;28;20774;-60
2021/06/03 12:15:44;;;;;;;3.45;1.42;;;23.10;42.30;;;;;;5013630;28;20753;-60
2021/06/03 12:18:10;;;;;;;2.10;1.40;;;23.10;42.30;;;;;;5013750;28;20914;-60
2021/06/03 12:20:36;;;;;;;2.17;1.43;;;23.10;42.30;;;;;;5013686;28;20393;-60
2021/06/03 12:23:07;;;;;;;2.30;1.40;;;23.10;42.20;;;;;;5011947;28;20727;-60
2021/06/03 12:25:37;;;;;;;1.67;1.38;;;23.10;42.20;;;;;;5012327;28;20401;-59
2021/06/03 12:28:04;;;;;;;2.80;1.33;;;23.10;42.10;;;;;;5012356;28;20397;-60
2021/06/03 12:30:33;;;;;;;2.35;1.33;;;23.10;42.10;;;;;;5012233;28;20416;-60
2021/06/03 12:32:59;;;;;;;2.10;1.50;;;23.10;42.10;;;;;;5011605;28;20423;-60
2021/06/03 12:35:52;;;;;;;2.22;1.50;;;23.10;42.10;;;;;;5011994;28;20909;-59
2021/06/03 12:38:36;;;;;;;1.60;1.25;;;23.10;42.20;;;;;;5012131;28;20750;-59
2021/06/03 12:41:26;;;;;;;1.75;1.38;;;23.10;42.10;;;;;;5011399;28;20447;-59
2021/06/03 12:43:54;;;;;;;2.63;1.38;;;23.10;42.10;;;;;;5011752;28;20420;-59
2021/06/03 12:46:35;;;;;;;2.50;1.48;;;23.10;42.10;;;;;;5012062;28;20439;-59
2021/06/03 12:49:07;;;;;;;2.72;1.50;;;23.10;42.10;;;;;;5011428;28;20769;-60
2021/06/03 12:51:34;;;;;;;2.90;1.50;;;23.10;42.00;;;;;;5011972;28;20372;-59
2021/06/03 12:54:00;;;;;;;2.35;1.40;;;23.10;42.10;;;;;;5010472;28;20847;-59
2021/06/03 12:56:27;;;;;;;2.35;1.30;;;23.10;42.00;;;;;;5011770;28;20487;-59
2021/06/03 12:58:53;;;;;;;2.50;1.45;;;23.10;42.00;;;;;;5011157;28;20400;-63
2021/06/03 13:01:20;;;;;;;2.60;1.35;;;23.10;43.50;;;;;;5011734;28;20408;-59
2021/06/03 13:03:57;;;;;;;3.55;1.45;;;23.20;44.90;;;;;;5011620;28;20455;-60
2021/06/03 13:06:25;;;;;;;3.83;1.60;;;23.20;44.90;;;;;;5011767;28;20915;-60